Beautiful Rena — C6YE7 — position and weather

sailwx.info

Track history (hours):
 
Tides and Currents Weather Stations Pressure Air Temp Water Temp Dewpoint Dewpoint Depression Visibility Wind Speed Wind Dir Waves Ship Positions

Beautiful Rena

Last reported at 2014-Jul-20 01:31 UTC. Time now 2014-Jul-25 11:24 UTC.
Position N 01°15' E 104°09'.

Length 190 m; draft 8.1 m.

Type: Cargo ship. MMSI: 311030200.

Date/timePositionNaut miles runAvg speedWind from/ knotsBaromVisibWave heightAir tempDewpointWater temp
2014-Jul-20 01:31N 01°15' E 104°09'1212.2
2014-Jul-20 00:33N 01°13' E 103°58'9 8.8
2014-Jul-19 23:33N 01°12' E 103°49'6 5.8
2014-Jul-19 22:34N 01°16' E 103°45'3 2.0
2014-Jul-19 21:18N 01°18' E 103°43'0 0.0
2014-Jul-19 20:18N 01°18' E 103°43'0 0.0
2014-Jul-18 12:23N 01°18' E 103°43'0 0.0
2014-Jul-16 15:03N 01°18' E 103°43'1 1.8
2014-Jul-16 14:33N 01°17' E 103°44'6 5.0
2014-Jul-16 13:26N 01°13' E 103°41'  
Track history (hours):
 
Tides and Currents Weather Stations Pressure Air Temp Water Temp Dewpoint Dewpoint Depression Visibility Wind Speed Wind Dir Waves Ship Positions

Beautiful Rena

Last reported at 2014-Jul-20 01:31 UTC. Time now 2014-Jul-25 11:24 UTC.
Position N 01°15' E 104°09'.

Length 190 m; draft 8.1 m.

Type: Cargo ship. MMSI: 311030200.

Date/timePositionNaut miles runAvg speedWind from/ knotsBaromVisibWave heightAir tempDewpointWater temp
2014-Jul-20 01:31N 01°15' E 104°09'1212.2
2014-Jul-20 00:33N 01°13' E 103°58'9 8.8
2014-Jul-19 23:33N 01°12' E 103°49'6 5.8
2014-Jul-19 22:34N 01°16' E 103°45'3 2.0
2014-Jul-19 21:18N 01°18' E 103°43'0 0.0
2014-Jul-19 20:18N 01°18' E 103°43'0 0.0
2014-Jul-18 12:23N 01°18' E 103°43'0 0.0
2014-Jul-16 15:03N 01°18' E 103°43'1 1.8
2014-Jul-16 14:33N 01°17' E 103°44'6 5.0
2014-Jul-16 13:26N 01°13' E 103°41'  

Dump ship's entire track history